Schall — DNBQ — position and weather

sailwx.info

Track history (hours):
 
Tides and Currents Weather Stations Pressure Air Temp Water Temp Dewpoint Dewpoint Depression Visibility Wind Speed Wind Dir Waves Ship Positions

Oceanographic research ship Schall (Germany)

Detailed information on ship capabilities available from University of Delaware's Ocean Information Center.

Last reported at 2017-Jul-20 08:55 UTC. Time now 2017-Jul-23 16:35 UTC.
Position N 54°08' E 009°20'.

Length 50 m; draft 2 m.

Type: Ship. MMSI: 211236290.

Date/timePositionNaut miles runAvg speedWind from/ knotsBaromVisibWave heightAir tempDewpointWater temp
2017-Jul-20 08:55N 54°08' E 009°20'3 8.2
2017-Jul-20 08:30N 54°05' E 009°19'4 8.4
2017-Jul-20 07:59N 54°00' E 009°18'4 8.3
2017-Jul-20 07:30N 53°57' E 009°14'4 8.0
2017-Jul-20 07:01N 53°54' E 009°09'1 1.2
2017-Jul-20 06:30N 53°54' E 009°09'3 6.0
2017-Jul-20 06:00N 53°53' E 009°04'5 9.9
2017-Jul-20 05:30N 53°51' E 008°56'5 9.6
2017-Jul-20 05:00N 53°50' E 008°48'4 7.1
2017-Jul-20 04:30N 53°52' E 008°43'0 0.0
2017-Jul-20 03:57N 53°52' E 008°43'0 0.0
2017-Jul-20 03:09N 53°52' E 008°43'0 0.0
2017-Jul-20 02:57N 53°52' E 008°43'0 0.0
2017-Jul-20 02:27N 53°52' E 008°43'0 0.0
2017-Jul-20 01:54N 53°52' E 008°43'0 0.0
2017-Jul-20 01:30N 53°52' E 008°43'0 0.0
2017-Jul-20 01:00N 53°52' E 008°43'0 0.0
2017-Jul-20 00:30N 53°52' E 008°43'0 0.0
2017-Jul-19 23:57N 53°52' E 008°43'0 0.0
2017-Jul-19 23:30N 53°52' E 008°43'0 0.0
2017-Jul-19 22:51N 53°52' E 008°43'0 0.0
2017-Jul-19 22:27N 53°52' E 008°43'0 0.0
2017-Jul-19 21:57N 53°52' E 008°43'0 0.0
2017-Jul-19 21:24N 53°52' E 008°43'0 0.0
2017-Jul-19 21:00N 53°52' E 008°43'0 0.0
2017-Jul-19 20:24N 53°52' E 008°43'0 0.0
2017-Jul-19 20:00N 53°52' E 008°43'0 0.0
2017-Jul-19 19:21N 53°52' E 008°43'0 0.0
2017-Jul-19 18:45N 53°52' E 008°43'0 0.0
2017-Jul-19 17:21N 53°52' E 008°43'0 0.0
2017-Jul-19 13:41N 53°52' E 008°43'0 1.1
2017-Jul-19 13:30N 53°52' E 008°43'6 4.5
2017-Jul-19 12:10N 53°57' E 008°37'1 4.7
2017-Jul-19 11:59N 53°58' E 008°36'13 3.2
2017-Jul-19 07:54N 54°07' E 008°50'1 0.8
2017-Jul-19 06:42N 54°08' E 008°52'0 0.0
2017-Jul-19 06:27N 54°08' E 008°52'0 0.0
2017-Jul-19 05:48N 54°08' E 008°52'  
2017-Jul-16 17:34N 54°08' E 008°52'0 0.0
2017-Jul-16 17:26N 54°08' E 008°52'0 0.0
2017-Jul-16 16:56N 54°08' E 008°52'0 0.0
2017-Jul-16 16:30N 54°08' E 008°52'0 0.0
2017-Jul-16 16:00N 54°08' E 008°52'0 0.0
2017-Jul-16 15:29N 54°08' E 008°52'0 0.0
2017-Jul-16 14:59N 54°08' E 008°52'0 0.0
2017-Jul-16 14:30N 54°08' E 008°52'0 0.0
2017-Jul-16 03:07N 54°08' E 008°52'0 0.0
2017-Jul-16 02:57N 54°08' E 008°52'0 0.0
2017-Jul-16 02:29N 54°08' E 008°52'0 0.0
2017-Jul-16 02:00N 54°08' E 008°52'0 0.0
2017-Jul-16 00:04N 54°08' E 008°52'0 0.0
2017-Jul-15 23:52N 54°08' E 008°52'0 0.0
2017-Jul-15 23:19N 54°08' E 008°52'0 0.0
2017-Jul-15 06:12N 54°08' E 008°52'0 0.0
2017-Jul-15 05:44N 54°08' E 008°52'0 0.0
2017-Jul-15 05:31N 54°08' E 008°52'0 0.0
2017-Jul-15 03:58N 54°08' E 008°52'0 0.0
2017-Jul-15 03:23N 54°08' E 008°52'0 0.0
2017-Jul-15 03:01N 54°08' E 008°52'0 0.0
2017-Jul-15 02:02N 54°08' E 008°52'0 0.0
2017-Jul-15 01:59N 54°08' E 008°52'22 1.3
2017-Jul-14 09:46N 54°01' E 008°17'13 9.8
2017-Jul-14 08:26N 53°58' E 008°38'611.6
2017-Jul-14 07:57N 53°53' E 008°43'1 1.8
2017-Jul-14 07:30N 53°52' E 008°43'1 1.2
2017-Jul-14 07:00N 53°51' E 008°43'0 0.0
2017-Jul-14 06:30N 53°51' E 008°43'0 0.0
2017-Jul-14 06:00N 53°51' E 008°43'0 0.0
2017-Jul-14 05:30N 53°51' E 008°43'0 0.0
2017-Jul-14 05:00N 53°51' E 008°43'0 0.0
2017-Jul-14 04:30N 53°51' E 008°43'0 0.0
2017-Jul-14 04:00N 53°51' E 008°43'0 0.0
2017-Jul-14 03:30N 53°51' E 008°43'0 0.0
2017-Jul-14 02:58N 53°51' E 008°43'0 0.0
2017-Jul-14 02:30N 53°51' E 008°43'0 0.0
2017-Jul-14 01:59N 53°51' E 008°43'0 0.0
2017-Jul-14 01:30N 53°51' E 008°43'0 0.0
2017-Jul-14 01:00N 53°51' E 008°43'0 0.0
2017-Jul-14 00:30N 53°51' E 008°43'0 0.0
2017-Jul-14 00:00N 53°51' E 008°43'0 0.0
2017-Jul-13 23:30N 53°51' E 008°43'0 0.0
2017-Jul-13 23:00N 53°51' E 008°43'0 0.0
2017-Jul-13 22:30N 53°51' E 008°43'0 0.0
2017-Jul-13 22:00N 53°51' E 008°43'0 0.0
2017-Jul-13 21:30N 53°51' E 008°43'0 0.0
2017-Jul-13 21:00N 53°51' E 008°43'0 0.0
2017-Jul-13 20:30N 53°51' E 008°43'0 0.0
2017-Jul-13 20:01N 53°51' E 008°43'0 0.0
2017-Jul-13 19:30N 53°51' E 008°43'0 0.0
2017-Jul-13 19:00N 53°51' E 008°43'0 0.0
2017-Jul-13 18:30N 53°51' E 008°43'0 0.0
2017-Jul-13 18:00N 53°51' E 008°43'0 0.0
2017-Jul-13 17:30N 53°51' E 008°43'0 0.0
2017-Jul-13 17:00N 53°51' E 008°43'0 0.6
2017-Jul-13 16:30N 53°52' E 008°43'1 1.0
2017-Jul-13 15:59N 53°52' E 008°44'4 7.5
2017-Jul-13 15:30N 53°51' E 008°49'3 6.7
2017-Jul-13 15:00N 53°51' E 008°55'3 6.1
2017-Jul-13 14:30N 53°51' E 009°00'3 6.1
2017-Jul-13 14:00N 53°53' E 009°05'3 5.2
2017-Jul-13 13:30N 53°54' E 009°09'0 0.0
2017-Jul-13 13:00N 53°54' E 009°09'1 1.6
2017-Jul-13 12:30N 53°54' E 009°10'3 5.3
2017-Jul-13 12:00N 53°56' E 009°13'3 6.6
2017-Jul-13 11:30N 53°59' E 009°16'3 6.9
2017-Jul-13 11:00N 54°02' E 009°18'  
Track history (hours):
 
Tides and Currents Weather Stations Pressure Air Temp Water Temp Dewpoint Dewpoint Depression Visibility Wind Speed Wind Dir Waves Ship Positions

Oceanographic research ship Schall (Germany)

Detailed information on ship capabilities available from University of Delaware's Ocean Information Center.

Last reported at 2017-Jul-20 08:55 UTC. Time now 2017-Jul-23 16:35 UTC.
Position N 54°08' E 009°20'.

Length 50 m; draft 2 m.

Type: Ship. MMSI: 211236290.

Date/timePositionNaut miles runAvg speedWind from/ knotsBaromVisibWave heightAir tempDewpointWater temp
2017-Jul-20 08:55N 54°08' E 009°20'3 8.2
2017-Jul-20 08:30N 54°05' E 009°19'4 8.4
2017-Jul-20 07:59N 54°00' E 009°18'4 8.3
2017-Jul-20 07:30N 53°57' E 009°14'4 8.0
2017-Jul-20 07:01N 53°54' E 009°09'1 1.2
2017-Jul-20 06:30N 53°54' E 009°09'3 6.0
2017-Jul-20 06:00N 53°53' E 009°04'5 9.9
2017-Jul-20 05:30N 53°51' E 008°56'5 9.6
2017-Jul-20 05:00N 53°50' E 008°48'4 7.1
2017-Jul-20 04:30N 53°52' E 008°43'0 0.0
2017-Jul-20 03:57N 53°52' E 008°43'0 0.0
2017-Jul-20 03:09N 53°52' E 008°43'0 0.0
2017-Jul-20 02:57N 53°52' E 008°43'0 0.0
2017-Jul-20 02:27N 53°52' E 008°43'0 0.0
2017-Jul-20 01:54N 53°52' E 008°43'0 0.0
2017-Jul-20 01:30N 53°52' E 008°43'0 0.0
2017-Jul-20 01:00N 53°52' E 008°43'0 0.0
2017-Jul-20 00:30N 53°52' E 008°43'0 0.0
2017-Jul-19 23:57N 53°52' E 008°43'0 0.0
2017-Jul-19 23:30N 53°52' E 008°43'0 0.0
2017-Jul-19 22:51N 53°52' E 008°43'0 0.0
2017-Jul-19 22:27N 53°52' E 008°43'0 0.0
2017-Jul-19 21:57N 53°52' E 008°43'0 0.0
2017-Jul-19 21:24N 53°52' E 008°43'0 0.0
2017-Jul-19 21:00N 53°52' E 008°43'0 0.0
2017-Jul-19 20:24N 53°52' E 008°43'0 0.0
2017-Jul-19 20:00N 53°52' E 008°43'0 0.0
2017-Jul-19 19:21N 53°52' E 008°43'0 0.0
2017-Jul-19 18:45N 53°52' E 008°43'0 0.0
2017-Jul-19 17:21N 53°52' E 008°43'0 0.0
2017-Jul-19 13:41N 53°52' E 008°43'0 1.1
2017-Jul-19 13:30N 53°52' E 008°43'6 4.5
2017-Jul-19 12:10N 53°57' E 008°37'1 4.7
2017-Jul-19 11:59N 53°58' E 008°36'13 3.2
2017-Jul-19 07:54N 54°07' E 008°50'1 0.8
2017-Jul-19 06:42N 54°08' E 008°52'0 0.0
2017-Jul-19 06:27N 54°08' E 008°52'0 0.0
2017-Jul-19 05:48N 54°08' E 008°52'  
2017-Jul-16 17:34N 54°08' E 008°52'0 0.0
2017-Jul-16 17:26N 54°08' E 008°52'0 0.0
2017-Jul-16 16:56N 54°08' E 008°52'0 0.0
2017-Jul-16 16:30N 54°08' E 008°52'0 0.0
2017-Jul-16 16:00N 54°08' E 008°52'0 0.0
2017-Jul-16 15:29N 54°08' E 008°52'0 0.0
2017-Jul-16 14:59N 54°08' E 008°52'0 0.0
2017-Jul-16 14:30N 54°08' E 008°52'0 0.0
2017-Jul-16 03:07N 54°08' E 008°52'0 0.0
2017-Jul-16 02:57N 54°08' E 008°52'0 0.0
2017-Jul-16 02:29N 54°08' E 008°52'0 0.0
2017-Jul-16 02:00N 54°08' E 008°52'0 0.0
2017-Jul-16 00:04N 54°08' E 008°52'0 0.0
2017-Jul-15 23:52N 54°08' E 008°52'0 0.0
2017-Jul-15 23:19N 54°08' E 008°52'0 0.0
2017-Jul-15 06:12N 54°08' E 008°52'0 0.0
2017-Jul-15 05:44N 54°08' E 008°52'0 0.0
2017-Jul-15 05:31N 54°08' E 008°52'0 0.0
2017-Jul-15 03:58N 54°08' E 008°52'0 0.0
2017-Jul-15 03:23N 54°08' E 008°52'0 0.0
2017-Jul-15 03:01N 54°08' E 008°52'0 0.0
2017-Jul-15 02:02N 54°08' E 008°52'0 0.0
2017-Jul-15 01:59N 54°08' E 008°52'22 1.3
2017-Jul-14 09:46N 54°01' E 008°17'13 9.8
2017-Jul-14 08:26N 53°58' E 008°38'611.6
2017-Jul-14 07:57N 53°53' E 008°43'1 1.8
2017-Jul-14 07:30N 53°52' E 008°43'1 1.2
2017-Jul-14 07:00N 53°51' E 008°43'0 0.0
2017-Jul-14 06:30N 53°51' E 008°43'0 0.0
2017-Jul-14 06:00N 53°51' E 008°43'0 0.0
2017-Jul-14 05:30N 53°51' E 008°43'0 0.0
2017-Jul-14 05:00N 53°51' E 008°43'0 0.0
2017-Jul-14 04:30N 53°51' E 008°43'0 0.0
2017-Jul-14 04:00N 53°51' E 008°43'0 0.0
2017-Jul-14 03:30N 53°51' E 008°43'0 0.0
2017-Jul-14 02:58N 53°51' E 008°43'0 0.0
2017-Jul-14 02:30N 53°51' E 008°43'0 0.0
2017-Jul-14 01:59N 53°51' E 008°43'0 0.0
2017-Jul-14 01:30N 53°51' E 008°43'0 0.0
2017-Jul-14 01:00N 53°51' E 008°43'0 0.0
2017-Jul-14 00:30N 53°51' E 008°43'0 0.0
2017-Jul-14 00:00N 53°51' E 008°43'0 0.0
2017-Jul-13 23:30N 53°51' E 008°43'0 0.0
2017-Jul-13 23:00N 53°51' E 008°43'0 0.0
2017-Jul-13 22:30N 53°51' E 008°43'0 0.0
2017-Jul-13 22:00N 53°51' E 008°43'0 0.0
2017-Jul-13 21:30N 53°51' E 008°43'0 0.0
2017-Jul-13 21:00N 53°51' E 008°43'0 0.0
2017-Jul-13 20:30N 53°51' E 008°43'0 0.0
2017-Jul-13 20:01N 53°51' E 008°43'0 0.0
2017-Jul-13 19:30N 53°51' E 008°43'0 0.0
2017-Jul-13 19:00N 53°51' E 008°43'0 0.0
2017-Jul-13 18:30N 53°51' E 008°43'0 0.0
2017-Jul-13 18:00N 53°51' E 008°43'0 0.0
2017-Jul-13 17:30N 53°51' E 008°43'0 0.0
2017-Jul-13 17:00N 53°51' E 008°43'0 0.6
2017-Jul-13 16:30N 53°52' E 008°43'1 1.0
2017-Jul-13 15:59N 53°52' E 008°44'4 7.5
2017-Jul-13 15:30N 53°51' E 008°49'3 6.7
2017-Jul-13 15:00N 53°51' E 008°55'3 6.1
2017-Jul-13 14:30N 53°51' E 009°00'3 6.1
2017-Jul-13 14:00N 53°53' E 009°05'3 5.2
2017-Jul-13 13:30N 53°54' E 009°09'0 0.0
2017-Jul-13 13:00N 53°54' E 009°09'1 1.6
2017-Jul-13 12:30N 53°54' E 009°10'3 5.3
2017-Jul-13 12:00N 53°56' E 009°13'3 6.6
2017-Jul-13 11:30N 53°59' E 009°16'3 6.9
2017-Jul-13 11:00N 54°02' E 009°18'  

Dump ship's entire track history